Time;durP1;ratioP1;P1;durP2;ratioP2;P2;SDS_P1;SDS_P2;PMS_P1;PMS_P2;Temp;Humidity;BMP_temperature;BMP_pressure;BME280_temperature;BME280_humidity;BME280_pressure;Samples;Min_cycle;Max_cycle;Signal;HPM_P1;HPM_P2
2022/06/15 00:00:14;;;;;;;3.25;1.90;;;;;;;20.63;71.83;99756.53;10292350;28;20077;-74
2022/06/15 00:05:15;;;;;;;6.22;1.50;;;;;;;21.39;72.18;99885.63;10293249;28;20046;-73
2022/06/15 00:10:15;;;;;;;7.22;2.17;;;;;;;20.51;72.23;99759.31;10293213;28;20590;-72
2022/06/15 00:15:16;;;;;;;4.57;1.85;;;;;;;21.07;72.71;99853.00;10291948;28;20047;-73
2022/06/15 00:20:18;;;;;;;3.53;1.90;;;;;;;21.24;72.95;99886.19;10292276;28;20039;-74
2022/06/15 00:25:18;;;;;;;3.97;1.65;;;;;;;21.19;73.06;99880.72;10290963;28;20035;-74
2022/06/15 00:30:21;;;;;;;7.30;2.08;;;;;;;20.91;73.00;99858.19;10292068;28;20238;-73
2022/06/15 00:35:22;;;;;;;4.15;2.10;;;;;;;21.28;73.23;99900.81;10292141;28;20133;-73
2022/06/15 00:40:22;;;;;;;3.05;2.20;;;;;;;21.35;73.16;99890.63;10292152;28;20133;-73
2022/06/15 00:45:23;;;;;;;11.25;3.30;;;;;;;20.56;73.54;99768.59;10289789;28;20125;-73
2022/06/15 00:50:25;;;;;;;25.23;3.53;;;;;;;19.89;73.65;99662.34;10296319;28;20045;-73
2022/06/15 00:55:30;;;;;;;8.18;2.90;;;;;;;20.67;74.42;99787.38;10300304;28;20046;-73
2022/06/15 01:00:31;;;;;;;4.93;2.47;;;;;;;20.41;74.00;99751.06;10316026;28;20078;-73
2022/06/15 01:05:57;;;;;;;10.57;3.17;;;;;;;21.24;76.07;99899.69;10339699;28;20081;-73
2022/06/15 01:11:19;;;;;;;4.80;2.25;;;;;;;21.20;75.98;99890.44;10324009;28;20088;-73
2022/06/15 01:16:37;;;;;;;10.55;2.80;;;;;;;21.00;75.96;99895.53;10298876;28;20097;-73
2022/06/15 01:21:44;;;;;;;15.57;2.38;;;;;;;20.63;77.41;99875.28;10298610;28;20069;-73
2022/06/15 01:27:00;;;;;;;14.57;1.80;;;;;;;20.68;77.56;99907.75;10298499;28;20077;-74
2022/06/15 01:32:19;;;;;;;6.38;2.10;;;;;;;20.45;78.05;99906.00;10298351;28;20561;-74
2022/06/15 01:37:42;;;;;;;5.43;1.95;;;;;;;20.30;77.89;99897.63;10298029;28;20125;-74
2022/06/15 01:42:52;;;;;;;40.42;4.68;;;;;;;20.43;77.25;99905.44;10297856;28;20590;-73
2022/06/15 01:47:57;;;;;;;5.63;1.80;;;;;;;19.52;75.32;99778.66;10298005;28;20051;-74
2022/06/15 01:53:10;;;;;;;6.35;1.70;;;;;;;19.63;75.44;99813.88;10296290;28;20045;-74
2022/06/15 01:58:14;;;;;;;5.23;1.83;;;;;;;19.81;74.59;99846.06;10295530;28;20518;-74
2022/06/15 02:03:17;;;;;;;;;;;;;;;20.46;73.07;99914.91;10297636;28;20043;-74
2022/06/15 02:08:26;;;;;;;8.77;2.00;;;;;;;20.15;74.20;99898.19;10328307;28;19921;-73
2022/06/15 02:13:40;;;;;;;6.53;2.13;;;;;;;20.26;74.47;99909.97;10296921;28;20105;-73
2022/06/15 02:18:46;;;;;;;4.05;1.70;;;;;;;20.26;73.96;99901.88;10314708;28;20038;-73
2022/06/15 02:23:51;;;;;;;4.90;2.03;;;;;;;20.21;74.33;99896.38;10336883;28;20100;-74
2022/06/15 02:28:57;;;;;;;9.40;2.15;;;;;;;20.41;74.47;99917.53;10322616;28;20035;-73
2022/06/15 02:34:02;;;;;;;5.82;2.17;;;;;;;20.54;74.14;99908.31;10295460;28;20043;-73
2022/06/15 02:39:07;;;;;;;7.50;2.13;;;;;;;19.82;73.43;99764.94;10295902;28;20038;-73
2022/06/15 02:44:11;;;;;;;15.55;2.50;;;;;;;20.43;72.76;99821.81;10295836;28;20047;-74
2022/06/15 02:49:11;;;;;;;;;;;;;;;21.39;71.36;99899.94;10295377;28;20074;-73
2022/06/15 02:54:31;;;;;;;9.18;2.80;;;;;;;21.50;71.95;99917.06;10294870;28;19980;-73
2022/06/15 02:59:32;;;;;;;18.60;2.75;;;;;;;21.41;71.24;99884.25;10300232;28;20034;-73
2022/06/15 03:04:33;;;;;;;8.98;2.22;;;;;;;21.47;70.74;99885.16;10321073;28;20489;-73
2022/06/15 03:09:34;;;;;;;9.48;2.25;;;;;;;21.56;70.00;99880.13;10334121;28;20058;-73
2022/06/15 03:14:35;;;;;;;20.05;3.58;;;;;;;20.92;70.15;99754.50;10331824;28;20521;-73
2022/06/15 03:19:36;;;;;;;12.23;2.78;;;;;;;21.69;70.11;99874.34;10335287;28;20449;-73
2022/06/15 03:24:36;;;;;;;11.68;3.40;;;;;;;21.71;70.11;99880.31;10333823;28;20046;-73
2022/06/15 03:29:37;;;;;;;7.13;2.30;;;;;;;22.02;69.71;99903.13;10333396;28;20050;-73
2022/06/15 03:34:38;;;;;;;4.38;2.10;;;;;;;22.01;69.49;99874.41;10334679;28;20042;-73
2022/06/15 03:39:39;;;;;;;10.98;2.20;;;;;;;22.31;69.80;99903.69;10333827;28;20125;-72
2022/06/15 03:44:41;;;;;;;6.68;2.40;;;;;;;22.15;70.07;99866.72;10331233;28;20042;-73
2022/06/15 03:49:42;;;;;;;7.55;2.83;;;;;;;22.41;69.16;99888.66;10331112;28;20049;-74
2022/06/15 03:54:43;;;;;;;12.32;3.95;;;;;;;22.65;68.71;99917.00;10325287;28;20058;-72
2022/06/15 03:59:45;;;;;;;9.07;3.28;;;;;;;22.38;68.37;99884.56;10324338;28;20038;-74
2022/06/15 04:04:46;;;;;;;10.32;4.13;;;;;;;22.78;68.21;99916.56;10333493;28;20038;-73
2022/06/15 04:09:47;;;;;;;8.52;2.65;;;;;;;22.70;67.88;99902.66;10332836;28;20145;-73
2022/06/15 04:14:49;;;;;;;7.15;1.80;;;;;;;22.76;67.40;99907.91;10332883;28;20474;-72
2022/06/15 04:20:31;;;;;;;9.20;2.10;;;;;;;22.96;67.10;99925.38;10328140;28;20034;-74
2022/06/15 04:25:11;;;;;;;5.25;1.45;;;;;;;22.72;66.71;99868.84;10308005;28;20043;-73
2022/06/15 04:30:12;;;;;;;7.13;1.70;;;;;;;22.70;66.20;99826.84;10292211;28;20522;-73
2022/06/15 04:35:13;;;;;;;48.97;4.40;;;;;;;23.68;66.58;99930.13;10291257;28;20062;-74
2022/06/15 04:40:14;;;;;;;7.28;2.05;;;;;;;24.06;64.60;99916.47;10291663;28;20038;-73
2022/06/15 04:45:16;;;;;;;5.82;1.70;;;;;;;24.42;62.62;99941.81;10291563;28;20117;-72
2022/06/15 04:50:17;;;;;;;4.70;1.73;;;;;;;24.60;61.53;99952.16;10291231;28;20447;-76
2022/06/15 04:55:21;;;;;;;4.20;1.50;;;;;;;24.65;60.09;99945.06;10291465;28;20038;-78
2022/06/15 05:00:24;;;;;;;3.80;1.90;;;;;;;24.70;59.69;99936.94;10304848;28;20137;-77
2022/06/15 05:05:26;;;;;;;16.48;2.38;;;;;;;24.68;58.67;99941.81;10299815;28;20046;-76
2022/06/15 05:10:27;;;;;;;5.63;1.52;;;;;;;24.56;57.90;99953.78;10324039;28;20636;-76
2022/06/15 05:15:28;;;;;;;3.55;1.33;;;;;;;24.14;57.15;99902.34;10325747;28;20046;-74
2022/06/15 05:20:28;;;;;;;6.88;1.50;;;;;;;24.34;56.65;99934.16;10325582;28;20520;-75
2022/06/15 05:25:29;;;;;;;22.17;2.13;;;;;;;23.87;56.36;99859.16;10329331;28;20057;-75
2022/06/15 05:30:30;;;;;;;17.35;2.00;;;;;;;24.35;55.07;99927.63;10329363;28;20042;-76
2022/06/15 05:35:31;;;;;;;22.08;2.00;;;;;;;24.63;54.09;99928.25;10330164;28;20046;-74
2022/06/15 05:40:32;;;;;;;5.03;1.40;;;;;;;24.75;52.97;99936.94;10326773;28;20401;-75
2022/06/15 05:45:32;;;;;;;39.45;3.05;;;;;;;24.82;52.92;99902.16;10337807;28;20133;-76
2022/06/15 05:50:33;;;;;;;8.27;1.30;;;;;;;25.25;51.87;99943.47;10337243;28;20054;-76
2022/06/15 05:55:34;;;;;;;28.30;2.55;;;;;;;24.70;52.86;99801.13;10336442;28;20046;-75
2022/06/15 06:00:35;;;;;;;3.75;1.20;;;;;;;25.64;53.23;99940.91;10337828;28;20129;-74
2022/06/15 06:05:36;;;;;;;4.15;1.67;;;;;;;25.81;52.58;99943.25;10334845;28;20049;-75
2022/06/15 06:10:36;;;;;;;15.77;1.83;;;;;;;25.50;53.44;99842.75;10335828;28;20058;-74
2022/06/15 06:15:37;;;;;;;4.43;1.10;;;;;;;26.19;52.31;99944.47;10331383;28;20046;-75
2022/06/15 06:20:39;;;;;;;1.42;0.95;;;;;;;25.91;52.08;99913.31;10335954;28;20035;-75
2022/06/15 06:25:41;;;;;;;2.40;1.00;;;;;;;26.14;51.39;99960.00;10334686;28;20487;-75
2022/06/15 06:30:41;;;;;;;4.20;1.45;;;;;;;26.30;50.03;99942.50;10333221;28;20371;-76
2022/06/15 06:35:43;;;;;;;20.33;1.67;;;;;;;26.60;49.60;99940.69;10333546;28;20038;-74
2022/06/15 06:40:43;;;;;;;10.07;2.10;;;;;;;26.68;48.67;99942.78;10332612;28;20125;-75
2022/06/15 06:45:44;;;;;;;4.05;0.95;;;;;;;26.91;47.61;99934.97;10323581;28;20042;-75
2022/06/15 06:50:45;;;;;;;4.68;1.20;;;;;;;27.05;46.17;99931.28;10335178;28;20488;-77
2022/06/15 06:55:46;;;;;;;4.30;1.25;;;;;;;27.65;45.46;99933.69;10336102;28;20080;-76
2022/06/15 07:00:47;;;;;;;9.38;1.70;;;;;;;28.17;43.62;99925.66;10333574;28;20042;-73
2022/06/15 07:05:48;;;;;;;31.98;2.05;;;;;;;28.36;43.03;99918.28;10335257;28;20038;-68
2022/06/15 07:10:49;;;;;;;6.88;1.35;;;;;;;28.28;41.88;99899.00;10334341;28;20103;-68
2022/06/15 07:15:49;;;;;;;3.40;0.73;;;;;;;27.60;41.75;99800.03;10334652;28;20046;-67
2022/06/15 07:20:50;;;;;;;10.38;1.58;;;;;;;28.21;41.64;99918.50;10333880;28;20158;-68
2022/06/15 07:25:51;;;;;;;7.15;1.70;;;;;;;27.83;42.21;99890.38;10334602;28;20041;-68
2022/06/15 07:30:52;;;;;;;9.90;1.58;;;;;;;27.39;41.65;99813.13;10334031;28;20053;-68
2022/06/15 07:35:52;;;;;;;8.32;1.63;;;;;;;28.39;41.86;99893.09;10332066;28;20034;-67
2022/06/15 07:40:54;;;;;;;26.15;2.03;;;;;;;28.68;41.39;99912.03;10333670;28;20046;-67
2022/06/15 07:45:54;;;;;;;3.63;1.08;;;;;;;28.89;40.86;99933.53;10333695;28;20042;-69
2022/06/15 07:50:55;;;;;;;9.82;1.80;;;;;;;28.85;40.30;99927.88;10332750;28;20042;-68
2022/06/15 07:55:57;;;;;;;3.42;1.02;;;;;;;28.59;40.92;99904.81;10333832;28;20498;-67
2022/06/15 08:00:58;;;;;;;4.53;1.30;;;;;;;28.62;39.82;99915.16;10332467;28;20042;-67
2022/06/15 08:05:58;;;;;;;11.20;1.60;;;;;;;27.55;39.91;99791.91;10331199;28;20042;-69
2022/06/15 08:10:59;;;;;;;4.00;1.50;;;;;;;28.10;40.85;99923.28;10332674;28;20438;-68
2022/06/15 08:16:00;;;;;;;4.18;1.20;;;;;;;27.71;40.03;99894.31;10333255;28;20457;-75
2022/06/15 08:21:05;;;;;;;8.23;1.23;;;;;;;27.79;39.82;99924.78;10332284;28;20088;-79
2022/06/15 08:26:11;;;;;;;11.90;1.30;;;;;;;27.65;39.29;99911.84;10332477;28;20503;-79
2022/06/15 08:31:13;;;;;;;10.52;1.20;;;;;;;27.69;39.91;99929.25;10332400;28;20049;-75
2022/06/15 08:36:14;;;;;;;6.63;1.20;;;;;;;27.85;39.41;99908.09;10332639;28;20133;-87
2022/06/15 08:41:30;;;;;;;6.97;1.40;;;;;;;28.17;39.17;99906.53;10332051;28;20133;-78
2022/06/15 08:47:02;;;;;;;12.70;1.55;;;;;;;28.49;38.68;99907.72;10329732;28;20069;-83
2022/06/15 08:52:13;;;;;;;12.27;1.50;;;;;;;28.39;38.71;99878.59;10330613;28;20055;-86
2022/06/15 08:57:53;;;;;;;11.30;1.67;;;;;;;28.45;37.90;99896.59;10325676;28;20050;-79
2022/06/15 09:03:21;;;;;;;10.88;2.28;;;;;;;28.30;39.15;99899.50;10344586;28;20069;-80
2022/06/15 09:08:34;;;;;;;14.48;1.35;;;;;;;28.18;38.18;99889.88;10327255;28;20226;-77
2022/06/15 09:13:55;;;;;;;;;;;;;;;28.43;39.64;99894.13;10335761;28;20565;-79
2022/06/15 09:19:07;;;;;;;6.65;1.15;;;;;;;27.71;38.94;99789.78;10349000;28;19980;-80
2022/06/15 09:24:21;;;;;;;2.70;1.13;;;;;;;28.43;38.81;99871.47;10334489;28;20046;-85
2022/06/15 09:29:54;;;;;;;7.82;1.40;;;;;;;29.24;37.16;99865.66;10334745;28;20517;-86
2022/06/15 09:35:05;;;;;;;7.45;1.50;;;;;;;29.11;37.92;99845.41;10333244;28;20137;-80
2022/06/15 09:40:07;;;;;;;7.10;1.27;;;;;;;29.63;36.99;99856.94;10334890;28;20046;-81
2022/06/15 09:45:23;;;;;;;12.17;1.50;;;;;;;30.24;36.11;99866.53;10313651;28;20078;-82
2022/06/15 09:50:26;;;;;;;15.90;1.88;;;;;;;30.24;36.21;99862.97;10324677;28;20054;-82
2022/06/15 09:55:37;;;;;;;10.10;1.55;;;;;;;30.42;36.44;99861.16;10333883;28;20034;-84
2022/06/15 10:00:38;;;;;;;8.32;1.75;;;;;;;30.28;36.68;99841.25;10295623;28;20096;-84
2022/06/15 10:05:43;;;;;;;9.05;1.95;;;;;;;30.17;36.29;99862.56;10296455;28;20039;-84
2022/06/15 10:10:53;;;;;;;8.98;1.60;;;;;;;29.69;37.19;99824.81;10296720;28;20074;-84
2022/06/15 10:15:58;;;;;;;11.40;1.90;;;;;;;30.20;36.73;99829.09;10309783;28;20062;-80
2022/06/15 10:21:08;;;;;;;10.65;1.80;;;;;;;30.96;34.06;99840.03;10293790;28;20120;-84
2022/06/15 10:26:22;;;;;;;5.75;1.92;;;;;;;31.28;33.32;99825.16;10294934;28;20376;-82
2022/06/15 10:31:32;;;;;;;4.53;1.50;;;;;;;31.07;32.80;99815.88;10295021;28;20110;-81
2022/06/15 10:36:36;;;;;;;7.05;1.00;;;;;;;30.97;31.74;99841.69;10334360;28;20479;-79
2022/06/15 10:41:49;;;;;;;13.05;1.95;;;;;;;30.48;31.61;99805.94;10350439;28;20443;-75
2022/06/15 10:47:03;;;;;;;7.82;1.40;;;;;;;30.63;31.18;99834.03;10327058;28;20169;-82
2022/06/15 10:52:37;;;;;;;5.63;1.60;;;;;;;30.61;31.16;99841.78;10320373;28;20109;-88
2022/06/15 11:03:31;;;;;;;12.20;1.83;;;;;;;30.58;31.26;99843.22;10309433;28;20081;-82
2022/06/15 11:08:35;;;;;;;7.93;1.40;;;;;;;30.49;30.71;99834.16;10311787;28;20054;-78
2022/06/15 11:13:57;;;;;;;13.82;2.70;;;;;;;30.97;31.58;99847.16;10315728;28;20610;-85
2022/06/15 11:19:05;;;;;;;14.85;1.70;;;;;;;30.48;29.70;99808.69;10313505;28;20046;-79
2022/06/15 11:24:14;;;;;;;6.45;1.98;;;;;;;30.74;29.07;99843.63;10313077;28;20049;-78
2022/06/15 11:29:33;;;;;;;7.05;1.50;;;;;;;30.85;28.49;99833.22;10309872;28;20042;-81
2022/06/15 11:34:41;;;;;;;8.93;1.40;;;;;;;30.77;28.17;99818.31;10313338;28;20035;-76
2022/06/15 11:39:48;;;;;;;6.32;1.48;;;;;;;29.84;26.78;99717.66;10306011;28;20042;-87
2022/06/15 11:44:51;;;;;;;5.03;1.27;;;;;;;30.34;27.67;99818.91;10351750;28;20441;-78
2022/06/15 11:50:01;;;;;;;4.82;0.90;;;;;;;30.19;26.19;99846.66;10380630;28;20410;-82
2022/06/15 11:55:20;;;;;;;12.18;1.73;;;;;;;29.30;26.82;99742.16;10350971;28;20044;-75
2022/06/15 12:00:49;;;;;;;12.02;1.60;;;;;;;29.72;26.29;99849.63;10347491;28;20038;-75
2022/06/15 12:06:06;;;;;;;6.93;1.33;;;;;;;29.67;26.08;99848.94;10371945;28;20045;-85
2022/06/15 12:17:10;;;;;;;15.27;2.30;;;;;;;29.55;26.15;99852.97;10471729;28;20043;-79
2022/06/15 12:22:45;;;;;;;6.10;1.60;;;;;;;29.21;25.84;99814.31;10471786;28;20056;-80
2022/06/15 12:27:57;;;;;;;6.22;1.55;;;;;;;29.13;26.58;99813.88;10472496;28;20045;-78
2022/06/15 12:33:03;;;;;;;7.90;1.23;;;;;;;28.82;26.24;99771.84;10470445;28;20044;-74
2022/06/15 12:38:42;;;;;;;11.23;1.85;;;;;;;29.25;25.82;99834.47;10479259;28;20045;-83
2022/06/15 12:43:44;;;;;;;3.88;1.02;;;;;;;28.98;26.50;99810.63;10479518;28;20117;-84
2022/06/15 12:49:18;;;;;;;8.23;1.67;;;;;;;29.37;26.57;99828.47;10484497;28;20056;-86
2022/06/15 12:54:48;;;;;;;10.32;1.40;;;;;;;29.36;27.17;99833.13;10487366;28;20040;-84
2022/06/15 13:00:17;;;;;;;4.20;1.20;;;;;;;29.42;27.24;99837.38;10487748;28;20041;-81
2022/06/15 13:05:25;;;;;;;6.50;1.10;;;;;;;29.41;26.96;99826.75;10491328;28;20496;-85
2022/06/15 13:10:28;;;;;;;7.07;1.40;;;;;;;29.27;27.53;99807.63;10481128;28;20063;-81
2022/06/15 13:16:02;;;;;;;10.73;1.20;;;;;;;29.43;26.23;99844.47;10488836;28;20040;-87
2022/06/15 13:21:04;;;;;;;13.05;1.35;;;;;;;28.87;26.93;99745.22;10491847;28;20053;-88
2022/06/15 13:26:12;;;;;;;5.27;1.30;;;;;;;29.51;27.40;99819.13;10489153;28;20044;-86
2022/06/15 13:32:05;;;;;;;6.88;1.58;;;;;;;29.45;26.18;99814.06;10493485;28;20162;-89
2022/06/15 13:37:23;;;;;;;9.93;1.23;;;;;;;29.24;26.58;99798.09;10446304;28;20397;-87
2022/06/15 13:42:40;;;;;;;8.02;1.40;;;;;;;28.54;26.64;99708.16;10457407;28;20044;-85
2022/06/15 13:47:58;;;;;;;7.30;1.20;;;;;;;29.08;26.66;99791.34;10455928;28;20037;-83
2022/06/15 13:53:01;;;;;;;9.48;1.45;;;;;;;29.05;27.27;99811.88;10474889;28;20044;-86
2022/06/15 13:58:21;;;;;;;7.30;1.10;;;;;;;28.92;26.48;99822.78;10505275;28;20519;-83
2022/06/15 14:03:30;;;;;;;9.02;1.23;;;;;;;28.75;26.89;99826.94;10502605;28;20056;-79
2022/06/15 14:08:48;;;;;;;9.65;1.33;;;;;;;28.63;26.58;99829.34;10501234;28;20059;-78
2022/06/15 14:14:05;;;;;;;5.88;1.38;;;;;;;28.58;26.98;99832.97;10501972;28;20126;-81
2022/06/15 14:19:29;;;;;;;10.77;1.10;;;;;;;28.13;26.27;99769.78;10501200;28;20143;-81
2022/06/15 14:24:33;;;;;;;6.03;1.30;;;;;;;28.50;26.55;99850.03;10495804;28;20040;-85
2022/06/15 14:29:42;;;;;;;22.92;2.17;;;;;;;28.51;26.34;99850.84;10493196;28;20055;-81
2022/06/15 14:34:42;;;;;;;25.55;2.20;;;;;;;28.44;26.97;99840.31;10494733;28;20123;-81
2022/06/15 14:39:53;;;;;;;16.80;1.80;;;;;;;27.05;26.63;99636.88;10497495;28;20049;-84
2022/06/15 14:45:12;;;;;;;8.70;1.23;;;;;;;28.27;26.92;99838.13;10491681;28;20041;-85
2022/06/15 14:50:15;;;;;;;7.55;1.20;;;;;;;28.17;26.90;99830.88;10475259;28;20076;-79
2022/06/15 14:55:18;;;;;;;;;;;;;;;28.43;27.21;99857.81;10494396;28;20036;-85
2022/06/15 15:00:27;;;;;;;13.40;2.70;;;;;;;28.17;27.05;99863.63;10503077;28;19951;-84
2022/06/15 15:05:36;;;;;;;28.88;2.92;;;;;;;28.03;27.13;99854.59;10479234;28;20075;-83
2022/06/15 15:10:54;;;;;;;10.63;2.25;;;;;;;27.99;27.15;99861.75;10494740;28;20113;-84
2022/06/15 15:15:59;;;;;;;16.95;2.08;;;;;;;27.89;27.40;99868.16;10494225;28;20094;-84
2022/06/15 15:21:19;;;;;;;12.20;1.42;;;;;;;27.85;27.50;99882.69;10495287;28;20047;-85
2022/06/15 15:26:58;;;;;;;18.23;1.95;;;;;;;27.19;28.30;99799.75;10493615;28;20462;-70
2022/06/15 15:37:35;;;;;;;9.82;2.20;;;;;;;26.90;29.06;99799.81;10472461;28;20110;-69
2022/06/15 15:42:37;;;;;;;13.88;2.33;;;;;;;27.28;29.18;99886.09;10492050;28;20040;-68
2022/06/15 15:47:38;;;;;;;9.40;2.22;;;;;;;27.19;29.28;99879.66;10491463;28;20054;-68
2022/06/15 15:52:43;;;;;;;7.72;2.70;;;;;;;27.04;29.34;99874.31;10496997;28;20090;-68
2022/06/15 15:57:45;;;;;;;11.40;2.55;;;;;;;27.18;29.60;99913.47;10496246;28;20098;-68
2022/06/15 16:02:50;;;;;;;16.73;2.77;;;;;;;26.36;29.51;99797.03;10496899;28;20036;-68
2022/06/15 16:07:52;;;;;;;11.40;2.28;;;;;;;27.10;29.94;99908.59;10496952;28;20048;-68
2022/06/15 16:12:53;;;;;;;10.63;3.20;;;;;;;26.99;29.93;99910.63;10496516;28;20101;-68
2022/06/15 16:17:54;;;;;;;17.95;3.25;;;;;;;26.14;30.46;99786.59;10496885;28;20063;-68
2022/06/15 16:22:57;;;;;;;29.60;3.55;;;;;;;26.84;30.98;99924.41;10495804;28;20098;-69
2022/06/15 16:27:59;;;;;;;13.13;3.58;;;;;;;26.47;31.68;99881.38;10497742;28;20037;-82
2022/06/15 16:33:02;;;;;;;17.17;4.40;;;;;;;26.57;32.00;99922.19;10495929;28;20048;-82
2022/06/15 16:38:09;;;;;;;90.57;52.08;;;;;;;25.80;32.40;99816.47;10493253;28;20050;-82
2022/06/15 16:43:10;;;;;;;75.13;35.00;;;;;;;26.40;32.61;99950.59;10491636;28;20467;-83
2022/06/15 16:48:11;;;;;;;65.50;33.75;;;;;;;26.33;32.60;99957.47;10494375;28;20063;-82
2022/06/15 16:53:12;;;;;;;90.53;44.25;;;;;;;25.81;32.97;99885.31;10494679;28;20048;-84
2022/06/15 16:58:17;;;;;;;35.00;14.88;;;;;;;26.16;33.22;99966.00;10495121;28;20041;-84
2022/06/15 17:03:18;;;;;;;58.90;24.23;;;;;;;26.03;33.42;99963.91;10495718;28;20037;-86
2022/06/15 17:08:18;;;;;;;22.20;8.07;;;;;;;25.49;33.99;99886.56;10492558;28;20155;-85
2022/06/15 17:13:19;;;;;;;9.85;3.20;;;;;;;24.60;33.87;99756.63;10493371;28;20044;-85
2022/06/15 17:18:20;;;;;;;12.30;3.22;;;;;;;25.82;34.71;99963.16;10492458;28;20044;-81
2022/06/15 17:23:24;;;;;;;10.15;2.70;;;;;;;25.57;35.66;99966.75;10494583;28;20047;-85
2022/06/15 17:28:25;;;;;;;5.22;1.98;;;;;;;25.24;36.36;99982.59;10491124;28;20500;-85
2022/06/15 17:33:26;;;;;;;13.82;2.72;;;;;;;24.73;37.34;99944.53;10498832;28;20040;-85
2022/06/15 17:38:27;;;;;;;11.65;3.88;;;;;;;25.05;37.95;100039.38;10499616;28;20036;-85
2022/06/15 17:43:28;;;;;;;18.00;3.13;;;;;;;24.36;37.34;99943.66;10499890;28;20040;-81
2022/06/15 17:48:29;;;;;;;13.23;2.40;;;;;;;25.07;36.34;100061.69;10501408;28;20047;-82
2022/06/15 17:53:30;;;;;;;17.65;2.60;;;;;;;24.85;36.59;100028.50;10498222;28;20052;-87
2022/06/15 17:58:31;;;;;;;13.60;1.70;;;;;;;24.98;36.13;100053.25;10501682;28;20036;-83
2022/06/15 18:03:33;;;;;;;6.68;1.58;;;;;;;24.65;36.53;99994.81;10501563;28;20131;-86
2022/06/15 18:08:35;;;;;;;8.23;2.08;;;;;;;25.25;38.67;100112.00;10502425;28;20101;-88
2022/06/15 18:13:46;;;;;;;7.13;2.20;;;;;;;24.36;43.12;99991.72;10501609;28;20059;-87
2022/06/15 18:18:52;;;;;;;12.20;3.08;;;;;;;24.28;47.33;100003.09;10502090;28;20044;-86
2022/06/15 18:23:55;;;;;;;8.10;1.92;;;;;;;24.75;49.31;100108.06;10500829;28;20044;-84
2022/06/15 18:28:56;;;;;;;6.25;2.10;;;;;;;23.30;49.39;99908.78;10494175;28;20048;-85
2022/06/15 18:33:58;;;;;;;12.23;2.92;;;;;;;24.38;50.75;100107.13;10500196;28;20036;-84
2022/06/15 18:38:59;;;;;;;6.40;1.92;;;;;;;24.33;51.41;100126.09;10499996;28;20177;-87
2022/06/15 18:49:20;;;;;;;7.18;2.00;;;;;;;23.24;52.58;99992.78;10500916;28;20710;-86
2022/06/15 18:54:21;;;;;;;5.95;2.00;;;;;;;24.02;53.23;100127.00;10500129;28;20128;-82
2022/06/15 18:59:23;;;;;;;6.13;1.83;;;;;;;24.04;53.39;100143.84;10499061;28;20399;-87
2022/06/15 19:04:23;;;;;;;6.35;1.80;;;;;;;23.95;54.29;100153.53;10500162;28;20113;-78
2022/06/15 19:09:25;;;;;;;8.98;2.08;;;;;;;23.69;54.63;100126.19;10480960;28;20106;-84
2022/06/15 19:14:26;;;;;;;7.78;1.85;;;;;;;23.60;55.06;100127.75;10499203;28;20037;-87
2022/06/15 19:19:27;;;;;;;16.92;2.28;;;;;;;22.96;55.79;100044.56;10499321;28;20496;-76
2022/06/15 19:24:49;;;;;;;6.65;2.05;;;;;;;23.31;56.76;100127.25;10498786;28;20526;-83
2022/06/15 19:29:51;;;;;;;6.28;2.00;;;;;;;23.29;58.40;100162.75;10499013;28;20043;-86
2022/06/15 19:34:52;;;;;;;10.27;2.30;;;;;;;23.11;59.62;100163.91;10498302;28;20036;-86
2022/06/15 19:39:53;;;;;;;6.47;2.47;;;;;;;22.93;61.10;100192.13;10498220;28;20669;-83
2022/06/15 19:44:55;;;;;;;6.15;2.30;;;;;;;22.42;63.15;100150.09;10498120;28;20044;-81
2022/06/15 19:49:56;;;;;;;14.63;2.88;;;;;;;22.58;63.53;100181.69;10498154;28;20105;-88
2022/06/15 19:54:57;;;;;;;7.80;2.65;;;;;;;22.45;64.17;100168.53;10497886;28;20044;-87
2022/06/15 19:59:58;;;;;;;9.95;3.00;;;;;;;22.45;64.89;100173.94;10497818;28;20131;-89
2022/06/15 20:04:59;;;;;;;7.47;3.25;;;;;;;21.73;65.94;100090.94;10497844;28;20115;-88
2022/06/15 20:09:59;;;;;;;7.13;2.42;;;;;;;22.15;66.96;100150.78;10498087;28;20060;-87
2022/06/15 20:15:00;;;;;;;6.38;2.50;;;;;;;22.18;68.02;100163.84;10497521;28;20048;-86
2022/06/15 20:20:14;;;;;;;6.20;2.40;;;;;;;21.95;71.89;100132.34;10497048;28;20442;-87
2022/06/15 20:25:15;;;;;;;5.32;2.03;;;;;;;21.96;69.32;100154.84;10478982;28;20094;-87
2022/06/15 20:30:18;;;;;;;7.25;2.60;;;;;;;22.15;69.07;100177.00;10496933;28;20040;-86
2022/06/15 20:35:19;;;;;;;4.72;2.47;;;;;;;22.18;69.20;100169.25;10496567;28;20059;-82
2022/06/15 20:40:21;;;;;;;7.28;2.33;;;;;;;21.38;69.02;100036.06;10496800;28;20072;-86
2022/06/15 20:45:22;;;;;;;5.95;2.17;;;;;;;22.03;69.23;100155.47;10495837;28;20109;-87
2022/06/15 20:50:23;;;;;;;7.70;2.33;;;;;;;22.16;69.36;100165.94;10495762;28;20097;-86
2022/06/15 20:55:24;;;;;;;5.57;2.67;;;;;;;21.83;69.75;100126.22;10496426;28;20553;-85
2022/06/15 21:00:25;;;;;;;4.28;2.38;;;;;;;21.88;70.15;100142.53;10496873;28;20094;-86
2022/06/15 21:05:26;;;;;;;6.10;2.88;;;;;;;21.83;70.24;100142.44;10496702;28;20048;-86
2022/06/15 21:21:06;;;;;;;5.43;2.00;;;;;;;21.98;69.68;100180.53;10503667;28;20131;-86
2022/06/15 21:26:07;;;;;;;6.15;2.10;;;;;;;22.07;69.69;100189.06;10503997;28;20111;-85
2022/06/15 21:31:09;;;;;;;6.35;2.38;;;;;;;22.03;70.28;100182.53;10503884;28;20045;-86
2022/06/15 21:36:10;;;;;;;4.97;2.05;;;;;;;22.04;70.51;100184.16;10503710;28;20067;-86
2022/06/15 21:41:11;;;;;;;6.78;2.10;;;;;;;20.57;70.13;99943.72;10502768;28;20040;-87
2022/06/15 21:46:12;;;;;;;4.97;1.77;;;;;;;21.73;70.39;100124.19;10503203;28;20072;-87
2022/06/15 21:51:13;;;;;;;5.63;2.58;;;;;;;21.73;70.97;100145.00;10470361;28;20579;-84
2022/06/15 21:56:14;;;;;;;5.50;1.55;;;;;;;21.80;71.09;100173.50;10502297;28;20136;-85
2022/06/15 22:01:15;;;;;;;4.15;1.90;;;;;;;21.76;71.92;100183.19;10502703;28;20040;-84
2022/06/15 22:06:16;;;;;;;3.85;1.80;;;;;;;21.78;71.88;100186.47;10501704;28;20086;-85
2022/06/15 22:11:17;;;;;;;6.30;2.10;;;;;;;21.69;72.21;100182.53;10501095;28;20044;-84
2022/06/15 22:16:18;;;;;;;4.30;1.75;;;;;;;21.22;72.12;100111.72;10501146;28;20063;-84
2022/06/15 22:21:20;;;;;;;5.53;1.90;;;;;;;21.59;73.12;100185.88;10501341;28;20047;-83
2022/06/15 22:26:21;;;;;;;3.75;2.00;;;;;;;21.53;72.47;100177.94;10483305;28;20399;-84
2022/06/15 22:31:23;;;;;;;3.85;1.90;;;;;;;21.38;72.04;100160.38;10500873;28;20041;-84
2022/06/15 22:36:24;;;;;;;8.68;2.33;;;;;;;20.91;71.69;100086.84;10482416;28;20470;-84
2022/06/15 22:41:25;;;;;;;4.68;1.67;;;;;;;19.74;71.63;99897.41;10500178;28;20082;-84
2022/06/15 22:46:26;;;;;;;5.28;1.73;;;;;;;21.47;72.15;100184.31;10499920;28;20047;-84
2022/06/15 22:51:27;;;;;;;5.35;1.80;;;;;;;21.30;71.84;100160.75;10498808;28;20076;-84
2022/06/15 22:56:28;;;;;;;3.97;1.75;;;;;;;20.74;71.79;100068.72;10500048;28;20036;-85
2022/06/15 23:01:29;;;;;;;3.65;1.48;;;;;;;20.74;71.93;100071.44;10499361;28;20123;-85
2022/06/15 23:06:30;;;;;;;11.50;1.95;;;;;;;21.62;71.97;100215.13;10499374;28;20090;-84
2022/06/15 23:11:31;;;;;;;5.00;1.65;;;;;;;21.61;72.06;100210.78;10499214;28;20066;-84
2022/06/15 23:16:32;;;;;;;4.38;1.88;;;;;;;21.62;71.88;100219.72;10497809;28;20538;-84
2022/06/15 23:21:33;;;;;;;5.13;1.33;;;;;;;21.58;72.17;100218.56;10498746;28;20083;-84
2022/06/15 23:26:34;;;;;;;3.00;1.45;;;;;;;20.79;72.62;100111.22;10497448;28;20036;-85
2022/06/15 23:31:35;;;;;;;4.03;1.70;;;;;;;21.27;73.12;100217.97;10497839;28;20487;-84
2022/06/15 23:36:37;;;;;;;4.57;1.80;;;;;;;21.09;73.72;100183.88;10498601;28;20036;-84
2022/06/15 23:52:21;;;;;;;2.10;1.40;;;;;;;20.61;74.54;100150.00;10497777;28;20131;-85
2022/06/15 23:57:22;;;;;;;3.72;1.90;;;;;;;21.04;74.51;100218.06;10497809;28;20048;-82
